Time;durP1;ratioP1;P1;durP2;ratioP2;P2;SDS_P1;SDS_P2;PMS_P1;PMS_P2;Temp;Humidity;BMP_temperature;BMP_pressure;BME280_temperature;BME280_humidity;BME280_pressure;Samples;Min_cycle;Max_cycle;Signal;HPM_P1;HPM_P2
2021/03/04 00:02:00;;;;;;;57.43;40.60;;;11.40;75.60;;;;;;5097946;28;20443;-72
2021/03/04 00:04:26;;;;;;;54.17;41.60;;;11.40;75.40;;;;;;5097375;28;20443;-72
2021/03/04 00:06:53;;;;;;;57.00;41.33;;;11.40;75.40;;;;;;5096934;28;20483;-72
2021/03/04 00:09:19;;;;;;;51.43;40.10;;;11.50;75.60;;;;;;5097028;28;20501;-72
2021/03/04 00:11:45;;;;;;;53.40;39.50;;;11.40;75.50;;;;;;5097309;28;20443;-72
2021/03/04 00:14:11;;;;;;;55.27;42.00;;;11.40;75.60;;;;;;5097771;28;20443;-72
2021/03/04 00:16:38;;;;;;;52.63;39.13;;;11.40;75.60;;;;;;5097774;28;20455;-72
2021/03/04 00:19:04;;;;;;;55.80;39.67;;;11.30;75.50;;;;;;5097262;28;20538;-72
2021/03/04 00:21:31;;;;;;;51.27;41.10;;;11.30;75.90;;;;;;5097073;28;20436;-72
2021/03/04 00:23:57;;;;;;;52.83;41.17;;;11.40;76.40;;;;;;5097038;28;20440;-72
2021/03/04 00:26:23;;;;;;;55.87;43.03;;;11.30;76.50;;;;;;5096918;28;20850;-72
2021/03/04 00:28:49;;;;;;;56.30;41.50;;;11.30;76.80;;;;;;5096863;28;20504;-72
2021/03/04 00:31:16;;;;;;;51.63;40.00;;;11.30;77.00;;;;;;5096865;28;20469;-72
2021/03/04 00:33:43;;;;;;;58.40;42.70;;;11.30;77.10;;;;;;5096876;28;20443;-72
2021/03/04 00:36:09;;;;;;;64.97;44.53;;;11.30;77.30;;;;;;5096416;28;20968;-72
2021/03/04 00:38:35;;;;;;;64.13;45.97;;;11.30;77.40;;;;;;5096417;28;20428;-72
2021/03/04 00:41:01;;;;;;;64.77;49.17;;;11.20;77.40;;;;;;5097036;28;20439;-72
2021/03/04 00:43:28;;;;;;;58.07;45.07;;;11.20;77.60;;;;;;5096746;28;20454;-72
2021/03/04 00:45:54;;;;;;;62.30;44.80;;;11.20;78.10;;;;;;5096549;28;20486;-72
2021/03/04 00:48:21;;;;;;;63.83;45.30;;;11.10;78.00;;;;;;5096806;28;20447;-72
2021/03/04 00:50:48;;;;;;;58.20;41.10;;;11.10;79.10;;;;;;5096223;28;20489;-72
2021/03/04 00:53:14;;;;;;;57.43;41.63;;;11.10;78.80;;;;;;5096439;28;20439;-72
2021/03/04 00:55:40;;;;;;;57.17;43.77;;;11.10;79.20;;;;;;5094976;28;20463;-72
2021/03/04 00:58:06;;;;;;;73.90;44.10;;;11.10;79.60;;;;;;5096419;28;20448;-72
2021/03/04 01:00:32;;;;;;;56.63;42.83;;;11.20;79.90;;;;;;5096317;28;20791;-72
2021/03/04 01:02:59;;;;;;;68.20;44.80;;;11.20;80.00;;;;;;5096308;28;20444;-72
2021/03/04 01:05:25;;;;;;;67.60;46.50;;;11.20;80.00;;;;;;5095730;28;20853;-72
2021/03/04 01:07:52;;;;;;;69.87;47.73;;;11.20;80.00;;;;;;5096305;28;20820;-72
2021/03/04 01:10:21;;;;;;;60.10;45.60;;;11.20;80.00;;;;;;5096153;28;20440;-72
2021/03/04 01:12:48;;;;;;;57.63;41.87;;;11.20;80.00;;;;;;5096159;28;20447;-72
2021/03/04 01:15:16;;;;;;;68.43;48.53;;;11.20;80.00;;;;;;5096112;28;20467;-72
2021/03/04 01:17:43;;;;;;;62.73;45.30;;;11.30;80.10;;;;;;5095988;28;20443;-72
2021/03/04 01:20:11;;;;;;;65.73;44.80;;;11.20;80.30;;;;;;5095630;28;20960;-72
2021/03/04 01:22:37;;;;;;;59.40;43.93;;;11.20;80.50;;;;;;5095968;28;20447;-72
2021/03/04 01:25:06;;;;;;;63.90;45.00;;;11.20;81.00;;;;;;5095380;28;20788;-72
2021/03/04 01:27:32;;;;;;;70.07;45.13;;;11.00;80.80;;;;;;5095794;28;20448;-72
2021/03/04 01:29:59;;;;;;;66.70;45.77;;;11.00;81.20;;;;;;5095998;28;20439;-72
2021/03/04 01:32:25;;;;;;;57.43;42.67;;;11.00;81.80;;;;;;5095752;28;20454;-72
2021/03/04 01:34:51;;;;;;;72.80;44.47;;;11.00;82.00;;;;;;5095617;28;20439;-72
2021/03/04 01:37:18;;;;;;;66.00;43.97;;;11.00;82.20;;;;;;5095585;28;20452;-72
2021/03/04 01:39:44;;;;;;;65.67;42.33;;;11.10;82.40;;;;;;5095504;28;20451;-72
2021/03/04 01:42:11;;;;;;;59.57;42.60;;;11.00;81.90;;;;;;5095315;28;20425;-72
2021/03/04 01:44:37;;;;;;;56.43;42.40;;;11.00;81.80;;;;;;5095514;28;20493;-72
2021/03/04 01:47:05;;;;;;;55.73;39.57;;;11.10;81.90;;;;;;5095306;28;20479;-72
2021/03/04 01:49:31;;;;;;;54.97;41.10;;;11.10;81.80;;;;;;5095435;28;20443;-72
2021/03/04 01:51:58;;;;;;;59.97;44.10;;;11.10;81.60;;;;;;5095361;28;20968;-72
2021/03/04 01:54:24;;;;;;;58.03;43.10;;;11.10;81.50;;;;;;5095298;28;20440;-72
2021/03/04 01:56:51;;;;;;;56.50;42.20;;;11.10;81.50;;;;;;5095203;28;20463;-72
2021/03/04 01:59:18;;;;;;;62.70;46.50;;;11.10;81.40;;;;;;5095158;28;20439;-72
2021/03/04 02:01:44;;;;;;;61.67;43.17;;;11.10;81.40;;;;;;5094822;28;20903;-72
2021/03/04 02:04:10;;;;;;;57.97;46.27;;;11.10;81.30;;;;;;5094790;28;20443;-72
2021/03/04 02:06:44;;;;;;;62.13;44.23;;;11.10;81.40;;;;;;5094151;28;20488;-72
2021/03/04 02:09:11;;;;;;;58.03;46.43;;;11.10;81.20;;;;;;5095033;28;20455;-72
2021/03/04 02:11:43;;;;;;;60.00;45.23;;;11.10;80.90;;;;;;5095047;28;20452;-72
2021/03/04 02:14:13;;;;;;;58.03;45.07;;;11.10;81.00;;;;;;5094975;28;20432;-72
2021/03/04 02:16:44;;;;;;;66.10;49.37;;;11.10;81.00;;;;;;5094507;28;21031;-72
2021/03/04 02:19:33;;;;;;;76.33;53.63;;;11.10;80.90;;;;;;5094885;28;20428;-72
2021/03/04 02:22:16;;;;;;;76.17;54.47;;;11.00;81.60;;;;;;5094901;28;20439;-72
2021/03/04 02:24:52;;;;;;;73.10;51.37;;;10.90;81.80;;;;;;5094780;28;20439;-71
2021/03/04 02:27:24;;;;;;;68.20;49.60;;;10.90;82.30;;;;;;5094309;28;21179;-71
2021/03/04 02:30:02;;;;;;;67.63;50.37;;;10.90;82.30;;;;;;5094693;28;20478;-71
2021/03/04 02:32:30;;;;;;;63.23;47.00;;;10.90;82.30;;;;;;5094265;28;20929;-71
2021/03/04 02:35:00;;;;;;;62.60;49.47;;;10.90;82.10;;;;;;5094454;28;20447;-72
2021/03/04 02:37:30;;;;;;;63.63;46.30;;;10.90;82.00;;;;;;5094541;28;20440;-71
2021/03/04 02:39:58;;;;;;;66.13;47.73;;;10.80;81.80;;;;;;5094479;28;20455;-71
2021/03/04 02:42:27;;;;;;;71.20;54.03;;;10.80;81.80;;;;;;5094470;28;20816;-71
2021/03/04 02:44:55;;;;;;;76.63;51.43;;;10.80;81.90;;;;;;5094829;28;20478;-71
2021/03/04 02:47:22;;;;;;;72.00;51.33;;;10.80;81.90;;;;;;5094204;28;20475;-71
2021/03/04 02:49:49;;;;;;;69.27;49.77;;;10.80;82.00;;;;;;5093965;28;20845;-71
2021/03/04 02:52:18;;;;;;;65.53;48.93;;;10.70;82.30;;;;;;5094191;28;20467;-71
2021/03/04 02:54:44;;;;;;;74.40;50.50;;;10.70;82.60;;;;;;5094190;28;20455;-71
2021/03/04 02:57:12;;;;;;;68.33;49.70;;;10.70;82.80;;;;;;5094041;28;20820;-71
2021/03/04 02:59:40;;;;;;;65.83;49.80;;;10.70;82.80;;;;;;5094134;28;20439;-71
2021/03/04 03:02:07;;;;;;;64.83;49.27;;;10.70;82.60;;;;;;5094082;28;20440;-71
2021/03/04 03:04:35;;;;;;;64.93;47.17;;;10.70;82.60;;;;;;5093709;28;20439;-72
2021/03/04 03:07:02;;;;;;;65.47;45.97;;;10.70;82.40;;;;;;5093457;28;20487;-71
2021/03/04 03:09:29;;;;;;;76.73;50.87;;;10.70;82.30;;;;;;5093641;28;20446;-71
2021/03/04 03:11:56;;;;;;;69.00;49.00;;;10.70;82.20;;;;;;5093938;28;20446;-71
2021/03/04 03:14:22;;;;;;;68.83;54.07;;;10.70;82.10;;;;;;5093891;28;20439;-72
2021/03/04 03:16:49;;;;;;;65.37;50.57;;;10.70;82.10;;;;;;5093371;28;20448;-72
2021/03/04 03:19:16;;;;;;;70.53;50.00;;;10.70;82.00;;;;;;5093533;28;20432;-72
2021/03/04 03:21:42;;;;;;;74.07;51.27;;;10.70;82.00;;;;;;5093769;28;20447;-71
2021/03/04 03:24:09;;;;;;;79.73;52.13;;;10.70;81.80;;;;;;5093834;28;20435;-72
2021/03/04 03:26:36;;;;;;;66.03;49.27;;;10.60;81.60;;;;;;5093272;28;21000;-72
2021/03/04 03:29:03;;;;;;;64.00;49.90;;;10.60;81.50;;;;;;5093671;28;20497;-72
2021/03/04 03:31:30;;;;;;;63.23;47.00;;;10.60;81.30;;;;;;5093648;28;20444;-72
2021/03/04 03:33:59;;;;;;;74.27;50.43;;;10.60;81.20;;;;;;5093646;28;20440;-72
2021/03/04 03:36:26;;;;;;;59.90;47.10;;;10.50;81.40;;;;;;5093746;28;20463;-72
2021/03/04 03:38:53;;;;;;;71.43;48.97;;;10.50;81.60;;;;;;5093567;28;20435;-72
2021/03/04 03:41:22;;;;;;;60.57;45.70;;;10.50;81.50;;;;;;5093532;28;20447;-72
2021/03/04 03:43:49;;;;;;;59.00;45.40;;;10.40;81.40;;;;;;5093519;28;20452;-72
2021/03/04 03:46:16;;;;;;;61.53;46.30;;;10.40;81.40;;;;;;5093396;28;20536;-72
2021/03/04 03:48:43;;;;;;;60.20;46.30;;;10.30;81.50;;;;;;5093450;28;20452;-72
2021/03/04 03:51:11;;;;;;;59.23;45.27;;;10.30;81.60;;;;;;5093459;28;20440;-72
2021/03/04 03:53:37;;;;;;;55.57;43.60;;;10.30;81.70;;;;;;5093414;28;20439;-72
2021/03/04 03:56:04;;;;;;;59.63;45.40;;;10.30;82.00;;;;;;5093345;28;20468;-72
2021/03/04 03:58:31;;;;;;;53.73;42.33;;;10.30;82.20;;;;;;5093366;28;20444;-72
2021/03/04 04:00:59;;;;;;;59.90;44.73;;;10.30;82.40;;;;;;5093397;28;20513;-72
2021/03/04 04:03:25;;;;;;;51.40;40.60;;;10.30;82.50;;;;;;5093420;28;20448;-72
2021/03/04 04:05:52;;;;;;;56.00;40.90;;;10.20;82.30;;;;;;5092855;28;20855;-72
2021/03/04 04:08:19;;;;;;;59.50;43.43;;;10.20;82.80;;;;;;5093301;28;20444;-71
2021/03/04 04:10:47;;;;;;;61.80;45.03;;;10.20;82.90;;;;;;5093273;28;20443;-71
2021/03/04 04:13:14;;;;;;;59.77;42.77;;;10.20;83.30;;;;;;5092959;28;20463;-71
2021/03/04 04:15:41;;;;;;;55.70;42.60;;;10.20;83.50;;;;;;5092907;28;20463;-71
2021/03/04 04:18:07;;;;;;;60.40;46.67;;;10.20;83.70;;;;;;5093212;28;20447;-71
2021/03/04 04:20:35;;;;;;;55.27;42.43;;;10.20;83.90;;;;;;5093265;28;20447;-71
2021/03/04 04:23:01;;;;;;;62.23;44.10;;;10.30;84.50;;;;;;5093200;28;20431;-71
2021/03/04 04:25:29;;;;;;;60.60;44.30;;;10.30;85.30;;;;;;5092991;28;20467;-71
2021/03/04 04:27:56;;;;;;;60.83;45.60;;;10.30;84.60;;;;;;5093169;28;20443;-71
2021/03/04 04:30:25;;;;;;;67.37;49.20;;;10.30;84.70;;;;;;5096152;28;20443;-71
2021/03/04 04:32:52;;;;;;;72.20;50.50;;;10.40;84.90;;;;;;5096578;28;20522;-71
2021/03/04 04:35:18;;;;;;;69.70;50.30;;;10.40;85.00;;;;;;5096777;28;20459;-71
2021/03/04 04:37:45;;;;;;;73.20;52.93;;;10.40;85.10;;;;;;5096497;28;20793;-71
2021/03/04 04:40:12;;;;;;;76.73;55.27;;;10.40;85.10;;;;;;5096785;28;20490;-71
2021/03/04 04:42:39;;;;;;;83.33;59.50;;;10.40;85.20;;;;;;5096670;28;20443;-71
2021/03/04 04:45:08;;;;;;;81.03;54.80;;;10.40;85.40;;;;;;5096576;28;20443;-71
2021/03/04 04:47:34;;;;;;;81.70;57.23;;;10.40;85.50;;;;;;5096583;28;20532;-71
2021/03/04 04:50:00;;;;;;;85.40;62.53;;;10.40;85.60;;;;;;5096550;28;20451;-71
2021/03/04 04:52:27;;;;;;;90.17;60.50;;;10.20;85.90;;;;;;5096494;28;20443;-71
2021/03/04 04:54:53;;;;;;;86.57;58.23;;;10.00;86.70;;;;;;5096511;28;20447;-72
2021/03/04 04:57:19;;;;;;;84.27;59.60;;;10.10;87.90;;;;;;5096307;28;20460;-71
2021/03/04 04:59:46;;;;;;;92.23;58.43;;;10.10;87.20;;;;;;5096021;28;20831;-71
2021/03/04 05:02:12;;;;;;;87.53;56.40;;;10.00;87.10;;;;;;5096510;28;20440;-71
2021/03/04 05:04:38;;;;;;;77.77;54.03;;;10.10;87.10;;;;;;5096137;28;20444;-71
2021/03/04 05:07:05;;;;;;;87.53;55.37;;;10.10;87.20;;;;;;5096310;28;20487;-71
2021/03/04 05:09:31;;;;;;;79.47;53.63;;;10.10;87.10;;;;;;5096238;28;20812;-71
2021/03/04 05:11:57;;;;;;;73.90;50.67;;;10.10;86.80;;;;;;5095896;28;20440;-71
2021/03/04 05:14:24;;;;;;;80.93;54.00;;;10.20;86.80;;;;;;5096121;28;20452;-71
2021/03/04 05:16:51;;;;;;;78.77;50.60;;;10.20;86.60;;;;;;5096220;28;20460;-71
2021/03/04 05:19:17;;;;;;;82.53;53.30;;;10.20;86.40;;;;;;5095679;28;20851;-71
2021/03/04 05:21:43;;;;;;;69.37;48.90;;;10.20;86.10;;;;;;5095926;28;20454;-71
2021/03/04 05:24:10;;;;;;;72.13;51.53;;;10.30;86.10;;;;;;5095945;28;20444;-71
2021/03/04 05:26:36;;;;;;;71.90;51.13;;;10.20;85.90;;;;;;5095724;28;20488;-71
2021/03/04 05:29:03;;;;;;;71.53;49.00;;;10.30;85.80;;;;;;5095519;28;20535;-71
2021/03/04 05:31:29;;;;;;;71.50;51.20;;;10.30;85.70;;;;;;5095793;28;20444;-71
2021/03/04 05:33:56;;;;;;;72.73;48.93;;;10.30;85.60;;;;;;5095396;28;20444;-71
2021/03/04 05:36:22;;;;;;;68.70;47.00;;;10.30;85.60;;;;;;5095859;28;20452;-71
2021/03/04 05:38:49;;;;;;;71.13;48.20;;;10.30;85.30;;;;;;5095650;28;20439;-71
2021/03/04 05:41:20;;;;;;;68.73;48.57;;;10.30;85.10;;;;;;5094863;28;20444;-71
2021/03/04 05:43:46;;;;;;;64.33;46.27;;;10.30;85.00;;;;;;5095826;28;20432;-71
2021/03/04 05:46:14;;;;;;;64.70;44.47;;;10.20;84.90;;;;;;5095385;28;20526;-71
2021/03/04 05:48:44;;;;;;;68.43;45.33;;;10.20;84.90;;;;;;5095384;28;20443;-71
2021/03/04 05:51:14;;;;;;;64.67;42.97;;;10.10;84.80;;;;;;5095089;28;20452;-71
2021/03/04 05:53:45;;;;;;;69.23;43.20;;;10.00;85.10;;;;;;5095022;28;20871;-70
2021/03/04 05:56:14;;;;;;;69.73;43.40;;;9.80;86.80;;;;;;5095222;28;20916;-71
2021/03/04 05:58:41;;;;;;;76.13;45.57;;;9.40;89.20;;;;;;5095187;28;20812;-71
2021/03/04 06:01:07;;;;;;;72.07;44.07;;;9.20;90.20;;;;;;5095181;28;20439;-70
2021/03/04 06:03:34;;;;;;;71.87;45.20;;;9.10;90.60;;;;;;5094714;28;20813;-71
2021/03/04 06:06:01;;;;;;;80.10;46.60;;;9.00;91.10;;;;;;5094755;28;20496;-71
2021/03/04 06:08:28;;;;;;;76.50;47.47;;;8.80;91.60;;;;;;5095013;28;20474;-70
2021/03/04 06:10:54;;;;;;;73.80;46.53;;;8.90;91.90;;;;;;5094995;28;20447;-71
2021/03/04 06:13:20;;;;;;;77.40;46.40;;;8.90;92.00;;;;;;5094987;28;20428;-72
2021/03/04 06:15:46;;;;;;;75.13;48.27;;;9.00;92.10;;;;;;5094574;28;20871;-71
2021/03/04 06:18:13;;;;;;;69.83;44.57;;;9.10;92.00;;;;;;5094923;28;20420;-71
2021/03/04 06:20:40;;;;;;;73.43;45.50;;;9.20;92.10;;;;;;5094774;28;20448;-71
2021/03/04 06:23:06;;;;;;;74.60;44.40;;;9.30;92.00;;;;;;5094815;28;20440;-71
2021/03/04 06:25:34;;;;;;;69.40;43.40;;;9.40;91.90;;;;;;5094595;28;20468;-71
2021/03/04 06:28:00;;;;;;;65.03;42.40;;;9.50;91.80;;;;;;5094677;28;20481;-71
2021/03/04 06:30:34;;;;;;;68.17;44.07;;;9.50;91.60;;;;;;5094615;28;20450;-71
2021/03/04 06:33:02;;;;;;;66.07;41.87;;;9.60;91.60;;;;;;5094273;28;20902;-71
2021/03/04 06:35:31;;;;;;;58.00;40.20;;;9.60;91.40;;;;;;5094427;28;20463;-71
2021/03/04 06:37:58;;;;;;;65.37;42.17;;;9.50;91.10;;;;;;5094429;28;20443;-71
2021/03/04 06:40:25;;;;;;;59.53;40.90;;;9.50;90.90;;;;;;5094355;28;20496;-71
2021/03/04 06:42:53;;;;;;;60.60;41.07;;;9.40;90.90;;;;;;5094361;28;20443;-71
2021/03/04 06:45:28;;;;;;;58.47;40.00;;;9.40;91.00;;;;;;5094314;28;20600;-71
2021/03/04 06:48:05;;;;;;;60.87;41.10;;;9.40;91.20;;;;;;5094214;28;20424;-71
2021/03/04 06:50:32;;;;;;;56.97;38.33;;;9.40;91.20;;;;;;5094164;28;20489;-71
2021/03/04 06:53:09;;;;;;;56.77;38.53;;;9.40;91.20;;;;;;5094174;28;20500;-71
2021/03/04 06:55:35;;;;;;;56.13;37.30;;;9.50;91.40;;;;;;5094138;28;20459;-71
2021/03/04 06:58:03;;;;;;;60.53;38.60;;;9.50;91.40;;;;;;5094088;28;20500;-71
2021/03/04 07:00:30;;;;;;;53.33;34.57;;;9.50;91.40;;;;;;5093976;28;20444;-71
2021/03/04 07:02:57;;;;;;;53.10;37.27;;;9.50;91.20;;;;;;5094207;28;20435;-71
2021/03/04 07:05:24;;;;;;;55.03;36.63;;;9.60;91.20;;;;;;5093694;28;20490;-71
2021/03/04 07:07:53;;;;;;;54.00;35.50;;;9.60;91.10;;;;;;5093459;28;20490;-71
2021/03/04 07:10:21;;;;;;;54.37;35.90;;;9.60;91.00;;;;;;5093815;28;20443;-72
2021/03/04 07:12:48;;;;;;;51.10;34.80;;;9.70;90.90;;;;;;5093847;28;20450;-72
2021/03/04 07:15:16;;;;;;;49.70;35.00;;;9.70;90.70;;;;;;5093648;28;20439;-72
2021/03/04 07:17:44;;;;;;;54.97;36.30;;;9.70;90.60;;;;;;5093732;28;20436;-72
2021/03/04 07:20:14;;;;;;;50.83;34.87;;;9.70;90.50;;;;;;5093309;28;20443;-71
2021/03/04 07:22:44;;;;;;;48.57;34.33;;;9.70;90.40;;;;;;5093326;28;20914;-71
2021/03/04 07:25:12;;;;;;;46.63;33.73;;;9.70;90.40;;;;;;5093860;28;20443;-71
2021/03/04 07:27:39;;;;;;;45.93;32.00;;;9.70;90.20;;;;;;5093495;28;20503;-71
2021/03/04 07:30:07;;;;;;;45.93;33.30;;;9.70;90.20;;;;;;5093571;28;20443;-72
2021/03/04 07:32:35;;;;;;;47.30;32.30;;;9.70;90.20;;;;;;5093539;28;20446;-72
2021/03/04 07:35:02;;;;;;;44.70;32.97;;;9.70;90.00;;;;;;5093451;28;20446;-71
2021/03/04 07:37:29;;;;;;;45.67;31.67;;;9.60;89.80;;;;;;5093548;28;20447;-72
2021/03/04 07:39:59;;;;;;;39.70;29.63;;;9.60;90.00;;;;;;5093200;28;20806;-71
2021/03/04 07:42:26;;;;;;;36.33;26.17;;;9.60;90.10;;;;;;5093255;28;20911;-72
2021/03/04 07:44:53;;;;;;;34.90;26.87;;;9.60;90.20;;;;;;5093463;28;20443;-72
2021/03/04 07:47:27;;;;;;;34.40;25.40;;;9.60;90.20;;;;;;5093451;28;20486;-71
2021/03/04 07:49:55;;;;;;;32.07;25.10;;;9.60;90.10;;;;;;5093507;28;20432;-72
2021/03/04 07:52:22;;;;;;;33.93;23.53;;;9.70;90.10;;;;;;5093311;28;20818;-72
2021/03/04 07:54:50;;;;;;;26.63;21.93;;;9.70;90.00;;;;;;5093080;28;20970;-71
2021/03/04 07:57:18;;;;;;;30.70;24.43;;;9.80;90.00;;;;;;5093023;28;21038;-72
2021/03/04 07:59:53;;;;;;;29.20;22.50;;;9.70;89.60;;;;;;5093325;28;20446;-71
2021/03/04 08:02:25;;;;;;;28.60;21.90;;;9.80;89.60;;;;;;5093323;28;20439;-72
2021/03/04 08:04:51;;;;;;;27.33;21.17;;;9.80;89.40;;;;;;5095233;28;20534;-71
2021/03/04 08:07:25;;;;;;;26.70;19.87;;;9.70;89.10;;;;;;5097321;28;20553;-72
2021/03/04 08:09:52;;;;;;;26.47;20.30;;;9.70;89.00;;;;;;5097366;28;20444;-72
2021/03/04 08:12:19;;;;;;;24.10;19.47;;;9.70;88.90;;;;;;5097312;28;20454;-72
2021/03/04 08:14:55;;;;;;;25.20;20.40;;;9.70;89.80;;;;;;5097242;28;20443;-72
2021/03/04 08:17:21;;;;;;;22.30;19.43;;;9.70;89.30;;;;;;5097143;28;20459;-71
2021/03/04 08:19:48;;;;;;;23.30;20.23;;;9.80;89.40;;;;;;5096898;28;20431;-71
2021/03/04 08:22:18;;;;;;;25.00;20.00;;;9.80;89.40;;;;;;5097136;28;20428;-72
2021/03/04 08:24:46;;;;;;;20.70;18.50;;;9.90;89.70;;;;;;5096974;28;20439;-72
2021/03/04 08:27:12;;;;;;;24.30;19.40;;;9.90;89.60;;;;;;5096937;28;20483;-71
2021/03/04 08:29:46;;;;;;;20.23;17.03;;;9.90;89.40;;;;;;5097004;28;20428;-71
2021/03/04 08:32:14;;;;;;;23.20;16.60;;;9.90;89.20;;;;;;5096929;28;20447;-72
2021/03/04 08:34:41;;;;;;;22.97;18.20;;;9.90;89.30;;;;;;5096936;28;20786;-71
2021/03/04 08:37:18;;;;;;;19.53;17.00;;;10.00;88.00;;;;;;5096700;28;20467;-72
2021/03/04 08:39:45;;;;;;;21.27;17.43;;;9.80;88.30;;;;;;5096766;28;20481;-72
2021/03/04 08:42:11;;;;;;;19.30;15.50;;;9.60;88.90;;;;;;5096696;28;20444;-72
2021/03/04 08:44:47;;;;;;;20.17;15.90;;;9.60;89.50;;;;;;5096329;28;20856;-72
2021/03/04 08:47:15;;;;;;;17.50;14.73;;;9.50;89.60;;;;;;5096473;28;20486;-72
2021/03/04 08:49:50;;;;;;;17.50;13.57;;;9.50;89.80;;;;;;5096308;28;20446;-72
2021/03/04 08:52:21;;;;;;;15.07;13.33;;;9.60;90.00;;;;;;5096535;28;20521;-72
2021/03/04 08:54:50;;;;;;;17.40;13.70;;;9.60;90.20;;;;;;5096465;28;20431;-71
2021/03/04 08:57:22;;;;;;;14.80;12.90;;;9.70;90.30;;;;;;5096053;28;20973;-72
2021/03/04 08:59:48;;;;;;;17.73;12.77;;;9.80;90.30;;;;;;5096439;28;20493;-72
2021/03/04 09:02:16;;;;;;;15.00;13.00;;;9.80;90.20;;;;;;5096369;28;20471;-72
2021/03/04 09:04:45;;;;;;;13.93;12.43;;;9.90;90.20;;;;;;5096110;28;20810;-72
2021/03/04 09:07:13;;;;;;;15.43;13.50;;;10.10;89.30;;;;;;5095834;28;21020;-72
2021/03/04 09:09:39;;;;;;;14.47;13.00;;;10.20;89.10;;;;;;5096138;28;20925;-72
2021/03/04 09:12:07;;;;;;;13.30;11.90;;;10.30;88.80;;;;;;5096167;28;20428;-72
2021/03/04 09:14:34;;;;;;;15.40;12.93;;;10.40;88.20;;;;;;5096109;28;20473;-72
2021/03/04 09:17:01;;;;;;;14.03;12.53;;;10.50;87.80;;;;;;5094830;28;20468;-72
2021/03/04 09:19:30;;;;;;;15.37;12.90;;;10.50;87.30;;;;;;5096050;28;20448;-71
2021/03/04 09:21:58;;;;;;;14.83;12.87;;;10.60;87.00;;;;;;5095639;28;20439;-72
2021/03/04 09:24:25;;;;;;;14.90;12.80;;;10.60;86.70;;;;;;5096251;28;20784;-72
2021/03/04 09:26:52;;;;;;;12.27;10.73;;;10.60;86.20;;;;;;5095667;28;20506;-72
2021/03/04 09:29:20;;;;;;;12.50;11.30;;;10.60;86.10;;;;;;5095478;28;20787;-72
2021/03/04 09:31:50;;;;;;;12.63;11.33;;;10.60;86.10;;;;;;5095498;28;20902;-72
2021/03/04 09:34:16;;;;;;;12.83;11.50;;;10.60;86.00;;;;;;5095450;28;20444;-72
2021/03/04 09:36:43;;;;;;;14.30;11.20;;;10.60;85.80;;;;;;5095357;28;20865;-72
2021/03/04 09:39:09;;;;;;;13.70;11.60;;;10.60;85.60;;;;;;5095663;28;20455;-72
2021/03/04 09:41:35;;;;;;;15.90;12.87;;;10.50;85.70;;;;;;5095283;28;20946;-72
2021/03/04 09:44:03;;;;;;;15.70;14.00;;;10.60;85.60;;;;;;5095526;28;20564;-72
2021/03/04 09:46:31;;;;;;;17.03;15.40;;;10.60;85.50;;;;;;5095040;28;20475;-72
2021/03/04 09:49:07;;;;;;;16.70;14.27;;;10.50;85.40;;;;;;5095490;28;20444;-72
2021/03/04 09:51:34;;;;;;;14.90;13.30;;;10.50;85.50;;;;;;5095107;28;20791;-72
2021/03/04 09:54:00;;;;;;;47.77;42.77;;;10.60;85.30;;;;;;5095359;28;20447;-72
2021/03/04 09:56:27;;;;;;;21.07;19.03;;;10.50;85.20;;;;;;5095295;28;20470;-72
2021/03/04 09:58:53;;;;;;;26.03;23.30;;;10.40;84.80;;;;;;5095270;28;20440;-72
2021/03/04 10:01:30;;;;;;;17.30;15.53;;;10.40;85.20;;;;;;5095253;28;20447;-72
2021/03/04 10:04:02;;;;;;;18.60;16.70;;;10.40;85.70;;;;;;5095135;28;20451;-72
2021/03/04 10:06:32;;;;;;;18.60;16.70;;;10.40;86.00;;;;;;5094592;28;20985;-72
2021/03/04 10:08:59;;;;;;;16.67;15.03;;;10.30;85.60;;;;;;5095159;28;20439;-72
2021/03/04 10:11:28;;;;;;;13.00;11.73;;;10.30;85.60;;;;;;5095236;28;20439;-72
2021/03/04 10:13:54;;;;;;;11.63;10.43;;;10.30;85.80;;;;;;5095039;28;20444;-72
2021/03/04 10:16:21;;;;;;;14.10;10.33;;;10.30;85.90;;;;;;5094824;28;20468;-72
2021/03/04 10:18:49;;;;;;;14.40;12.20;;;10.30;86.10;;;;;;5094857;28;20440;-72
2021/03/04 10:21:17;;;;;;;12.70;10.57;;;10.30;86.10;;;;;;5094747;28;20450;-72
2021/03/04 10:23:47;;;;;;;12.60;10.97;;;10.30;85.90;;;;;;5094815;28;20431;-72
2021/03/04 10:26:13;;;;;;;15.10;12.20;;;10.20;85.50;;;;;;5094627;28;20522;-72
2021/03/04 10:28:39;;;;;;;12.97;11.37;;;10.10;85.50;;;;;;5094512;28;20431;-72
2021/03/04 10:31:05;;;;;;;18.57;14.13;;;10.10;85.80;;;;;;5094620;28;20447;-72
2021/03/04 10:33:32;;;;;;;15.10;13.50;;;10.00;86.10;;;;;;5094639;28;20424;-72
2021/03/04 10:35:59;;;;;;;17.53;13.60;;;9.80;87.90;;;;;;5094488;28;20509;-72
2021/03/04 10:38:25;;;;;;;16.63;14.47;;;9.80;88.40;;;;;;5094444;28;20431;-72
2021/03/04 10:40:51;;;;;;;16.40;14.67;;;9.80;88.20;;;;;;5094401;28;20447;-72
2021/03/04 10:43:18;;;;;;;16.20;13.80;;;9.80;88.30;;;;;;5094109;28;20447;-72
2021/03/04 10:45:44;;;;;;;17.60;15.13;;;9.80;88.40;;;;;;5094303;28;20516;-72
2021/03/04 10:48:12;;;;;;;17.80;15.80;;;9.90;88.50;;;;;;5094034;28;20464;-72
2021/03/04 10:50:38;;;;;;;16.60;13.87;;;9.90;88.40;;;;;;5094290;28;20502;-72
2021/03/04 10:53:06;;;;;;;14.73;13.00;;;10.00;87.90;;;;;;5094277;28;20439;-72
2021/03/04 10:55:32;;;;;;;14.17;11.90;;;10.00;87.20;;;;;;5094142;28;20516;-72
2021/03/04 10:57:58;;;;;;;16.60;13.93;;;10.10;86.90;;;;;;5094198;28;20466;-72
2021/03/04 11:00:24;;;;;;;15.10;12.83;;;10.10;86.00;;;;;;5094119;28;20434;-72
2021/03/04 11:02:51;;;;;;;15.93;14.23;;;10.00;86.00;;;;;;5094052;28;20562;-72
2021/03/04 11:05:17;;;;;;;18.73;14.53;;;10.00;86.30;;;;;;5093698;28;20463;-72
2021/03/04 11:07:43;;;;;;;15.60;13.70;;;9.90;87.20;;;;;;5093646;28;20476;-72
2021/03/04 11:10:11;;;;;;;17.27;14.40;;;9.80;86.80;;;;;;5094080;28;20440;-72
2021/03/04 11:12:37;;;;;;;18.73;15.00;;;9.70;87.10;;;;;;5093981;28;20447;-72
2021/03/04 11:15:05;;;;;;;19.23;15.47;;;9.70;87.60;;;;;;5094080;28;20444;-72
2021/03/04 11:17:31;;;;;;;19.13;15.23;;;9.70;88.30;;;;;;5093891;28;20492;-72
2021/03/04 11:19:57;;;;;;;16.90;14.57;;;9.70;88.40;;;;;;5093821;28;20965;-72
2021/03/04 11:22:24;;;;;;;24.37;15.80;;;9.60;88.20;;;;;;5093827;28;20447;-73
2021/03/04 11:24:50;;;;;;;17.00;14.60;;;9.60;88.60;;;;;;5093593;28;20834;-71
2021/03/04 11:27:17;;;;;;;27.93;16.00;;;9.50;88.70;;;;;;5093728;28;20476;-72
2021/03/04 11:29:46;;;;;;;17.93;14.87;;;9.40;89.00;;;;;;5093905;28;20920;-72
2021/03/04 11:32:12;;;;;;;16.47;13.03;;;9.40;89.40;;;;;;5093618;28;20453;-72
2021/03/04 11:34:38;;;;;;;18.30;14.10;;;9.40;89.30;;;;;;5093341;28;20946;-72
2021/03/04 11:37:05;;;;;;;17.60;13.10;;;9.30;89.40;;;;;;5093525;28;20456;-72
2021/03/04 11:39:33;;;;;;;14.13;11.90;;;9.30;89.80;;;;;;5092851;28;20451;-72
2021/03/04 11:41:59;;;;;;;25.57;20.07;;;9.30;89.60;;;;;;5093567;28;20432;-72
2021/03/04 11:44:26;;;;;;;31.07;24.70;;;9.20;89.80;;;;;;5093222;28;21002;-72
2021/03/04 11:46:52;;;;;;;38.90;26.43;;;9.20;90.00;;;;;;5093467;28;20483;-72
2021/03/04 11:49:18;;;;;;;37.97;27.97;;;9.30;90.10;;;;;;5094073;28;20443;-72
2021/03/04 11:51:44;;;;;;;35.30;27.40;;;9.20;90.10;;;;;;5093160;28;20914;-72
2021/03/04 11:54:11;;;;;;;35.70;28.30;;;9.20;90.30;;;;;;5093521;28;20424;-72
2021/03/04 11:56:37;;;;;;;31.10;25.33;;;9.30;90.40;;;;;;5093351;28;20460;-72
2021/03/04 11:59:05;;;;;;;26.60;23.80;;;9.30;90.20;;;;;;5093178;28;20765;-72
2021/03/04 12:01:32;;;;;;;18.90;16.97;;;9.30;90.10;;;;;;5093386;28;20454;-72
2021/03/04 12:03:59;;;;;;;40.23;36.13;;;9.30;90.00;;;;;;5093118;28;20910;-72
2021/03/04 12:06:25;;;;;;;26.20;23.60;;;9.30;90.00;;;;;;5093033;28;20492;-72
2021/03/04 12:08:51;;;;;;;30.47;27.47;;;9.30;89.80;;;;;;5093047;28;20795;-72
2021/03/04 12:11:18;;;;;;;22.10;20.00;;;9.30;90.00;;;;;;5093340;28;20438;-72
2021/03/04 12:13:44;;;;;;;22.77;20.57;;;9.30;90.00;;;;;;5093325;28;20435;-72
2021/03/04 12:16:11;;;;;;;17.07;15.50;;;9.30;89.80;;;;;;5093213;28;20459;-72
2021/03/04 12:18:38;;;;;;;12.13;10.90;;;9.30;90.10;;;;;;5093263;28;20505;-72
2021/03/04 12:21:05;;;;;;;9.80;8.67;;;9.30;90.00;;;;;;5093191;28;20424;-72
2021/03/04 12:23:32;;;;;;;12.40;10.07;;;9.40;89.90;;;;;;5093176;28;20442;-72
2021/03/04 12:25:58;;;;;;;7.97;7.20;;;9.40;90.00;;;;;;5093072;28;20460;-72
2021/03/04 12:28:25;;;;;;;5.93;5.40;;;9.40;88.30;;;;;;5093042;28;20483;-72
2021/03/04 12:30:51;;;;;;;6.10;5.50;;;9.30;88.40;;;;;;5092793;28;20956;-72
2021/03/04 12:33:17;;;;;;;6.37;5.77;;;9.30;89.00;;;;;;5092767;28;20953;-72